Time;durP1;ratioP1;P1;durP2;ratioP2;P2;SDS_P1;SDS_P2;PMS_P1;PMS_P2;Temp;Humidity;BMP_temperature;BMP_pressure;BME280_temperature;BME280_humidity;BME280_pressure;Samples;Min_cycle;Max_cycle;Signal;HPM_P1;HPM_P2
2020/12/27 00:01:02;;;;;;;9.43;5.65;;;;;;;-0.65;73.98;100611.65;1756201;81;21627;-64
2020/12/27 00:03:30;;;;;;;10.40;6.00;;;;;;;-0.72;73.79;100606.36;1756235;81;21211;-63
2020/12/27 00:05:58;;;;;;;10.38;5.70;;;;;;;-0.77;73.96;100611.89;1756280;81;21179;-64
2020/12/27 00:08:25;;;;;;;10.98;5.62;;;;;;;-0.84;74.33;100607.03;1756333;81;21635;-63
2020/12/27 00:10:53;;;;;;;12.40;6.33;;;;;;;-0.87;74.75;100610.44;1756241;81;21666;-64
2020/12/27 00:13:22;;;;;;;9.73;5.85;;;;;;;-0.92;74.89;100603.43;1756245;81;22782;-64
2020/12/27 00:15:49;;;;;;;10.93;6.33;;;;;;;-0.98;74.85;100604.64;1756141;81;21179;-64
2020/12/27 00:18:17;;;;;;;11.28;5.87;;;;;;;-1.04;75.05;100605.81;1756036;79;21187;-63
2020/12/27 00:20:45;;;;;;;15.83;6.45;;;;;;;-1.09;75.37;100609.61;1755995;81;21111;-64
2020/12/27 00:23:12;;;;;;;10.60;6.40;;;;;;;-1.14;76.02;100609.52;1756048;81;21199;-63
2020/12/27 00:25:40;;;;;;;11.05;6.45;;;;;;;-1.14;76.36;100608.23;1755991;81;21225;-66
2020/12/27 00:28:08;;;;;;;8.85;5.35;;;;;;;-1.13;76.65;100616.84;1756092;81;21187;-65
2020/12/27 00:30:36;;;;;;;12.75;6.42;;;;;;;-1.12;76.74;100619.47;1756090;80;21171;-65
2020/12/27 00:33:04;;;;;;;9.45;5.28;;;;;;;-1.09;77.05;100621.23;1756060;81;21186;-65
2020/12/27 00:35:33;;;;;;;13.03;6.62;;;;;;;-1.07;77.36;100613.95;1708116;76;21645;-81
2020/12/27 00:38:00;;;;;;;9.70;5.75;;;;;;;-1.07;76.92;100615.25;1698969;83;21301;-82
2020/12/27 00:40:28;;;;;;;10.88;6.42;;;;;;;-1.06;76.91;100617.02;1746392;82;21627;-81
2020/12/27 00:42:56;;;;;;;9.45;5.95;;;;;;;-1.02;76.56;100622.22;1690203;85;21154;-80
2020/12/27 00:45:25;;;;;;;14.75;6.92;;;;;;;-0.99;76.71;100628.34;1710633;80;21172;-80
2020/12/27 00:47:52;;;;;;;14.80;7.05;;;;;;;-0.95;76.36;100631.83;1691148;84;21088;-81
2020/12/27 00:50:21;;;;;;;15.68;7.37;;;;;;;-0.92;77.01;100630.19;1744756;81;21399;-81
2020/12/27 00:52:48;;;;;;;13.08;7.67;;;;;;;-0.89;76.97;100624.19;1773483;80;21541;-77
2020/12/27 00:55:16;;;;;;;13.55;7.40;;;;;;;-0.85;76.67;100623.41;1778582;80;21621;-78
2020/12/27 00:57:44;;;;;;;14.73;6.90;;;;;;;-0.81;76.41;100624.31;1779738;80;21127;-78
2020/12/27 01:00:12;;;;;;;10.43;6.75;;;;;;;-0.76;76.60;100627.44;1780105;80;21135;-81
2020/12/27 01:02:42;;;;;;;10.65;6.67;;;;;;;-0.72;77.04;100621.45;1782252;80;21210;-80
2020/12/27 01:05:28;;;;;;;13.48;6.90;;;;;;;-0.69;76.38;100624.11;1783113;80;21136;-80
2020/12/27 01:07:59;;;;;;;15.53;8.10;;;;;;;-0.68;76.61;100621.95;1752987;80;21164;-79
2020/12/27 01:10:27;;;;;;;13.93;6.97;;;;;;;-0.65;77.04;100616.82;1783543;80;21170;-78
2020/12/27 01:12:57;;;;;;;14.30;7.42;;;;;;;-0.60;75.75;100627.67;1753296;80;21102;-81
2020/12/27 01:15:27;;;;;;;13.22;7.40;;;;;;;-0.59;76.01;100622.97;1783964;80;21448;-80
2020/12/27 01:18:15;;;;;;;12.00;7.17;;;;;;;-0.53;74.97;100619.16;1796813;76;22763;-80
2020/12/27 01:20:45;;;;;;;15.58;8.53;;;;;;;-0.56;75.72;100617.83;1753957;80;21016;-81
2020/12/27 01:23:16;;;;;;;16.10;8.85;;;;;;;-0.53;75.14;100616.58;1755307;79;21773;-80
2020/12/27 01:29:00;;;;;;;14.55;8.58;;;;;;;-0.51;75.48;100615.75;1718246;78;21128;-83
2020/12/27 01:31:28;;;;;;;15.08;7.50;;;;;;;-0.47;76.37;100620.56;1676935;83;21075;-82
2020/12/27 01:33:56;;;;;;;14.05;8.45;;;;;;;-0.44;76.16;100633.54;1671007;82;21158;-81
2020/12/27 01:36:34;;;;;;;14.83;8.50;;;;;;;-0.42;76.05;100633.14;1682612;81;21503;-82
2020/12/27 01:39:06;;;;;;;16.97;9.15;;;;;;;-0.38;76.16;100640.55;1682471;85;21083;-80
2020/12/27 01:41:35;;;;;;;15.75;9.15;;;;;;;-0.36;75.23;100635.84;1681664;85;21194;-80
2020/12/27 01:44:08;;;;;;;17.75;9.65;;;;;;;-0.36;74.72;100641.02;1681723;85;21853;-80
2020/12/27 01:46:42;;;;;;;18.25;8.68;;;;;;;-0.33;75.08;100646.23;1681840;81;21154;-79
2020/12/27 01:49:12;;;;;;;14.05;7.05;;;;;;;-0.30;74.80;100647.59;1681070;85;21381;-80
2020/12/27 01:51:40;;;;;;;15.10;6.92;;;;;;;-0.26;75.42;100656.25;1677436;80;21155;-78
2020/12/27 01:54:08;;;;;;;13.55;7.40;;;;;;;-0.25;75.72;100658.88;1653843;87;21174;-79
2020/12/27 01:56:47;;;;;;;14.40;7.27;;;;;;;-0.16;75.96;100654.67;1813996;77;22701;-79
2020/12/27 01:59:25;;;;;;;13.55;7.83;;;;;;;-0.20;76.06;100661.97;1785749;80;21088;-81
2020/12/27 02:01:54;;;;;;;15.65;7.33;;;;;;;-0.20;75.41;100661.97;1725140;79;21847;-81
2020/12/27 02:04:32;;;;;;;12.40;6.93;;;;;;;-0.13;76.20;100659.91;1792842;76;22798;-81
2020/12/27 02:07:04;;;;;;;13.25;7.65;;;;;;;-0.14;76.22;100663.33;1755189;82;21032;-79
2020/12/27 02:09:52;;;;;;;19.17;8.70;;;;;;;-0.08;75.15;100664.73;1814140;77;22721;-80
2020/12/27 02:12:20;;;;;;;14.53;7.62;;;;;;;-0.11;75.18;100671.17;1759056;80;21159;-81
2020/12/27 02:14:53;;;;;;;12.88;6.97;;;;;;;-0.11;74.60;100682.81;1699998;82;21294;-81
2020/12/27 02:20:23;;;;;;;12.78;6.70;;;;;;;-0.10;75.34;100685.41;1741382;77;21214;-78
2020/12/27 02:22:53;;;;;;;14.18;7.92;;;;;;;-0.11;75.71;100682.39;1820730;78;21202;-79
2020/12/27 02:25:21;;;;;;;10.82;7.05;;;;;;;-0.08;75.87;100690.62;1813702;79;21135;-77
2020/12/27 02:27:51;;;;;;;11.40;6.80;;;;;;;-0.05;75.40;100688.06;1748721;81;21549;-77
2020/12/27 02:30:19;;;;;;;9.43;6.10;;;;;;;-0.04;74.92;100688.09;1810337;79;21194;-78
2020/12/27 02:32:46;;;;;;;12.15;7.20;;;;;;;-0.03;75.98;100688.53;1782537;80;21617;-75
2020/12/27 02:35:14;;;;;;;13.48;6.92;;;;;;;-0.03;74.24;100688.53;1781976;80;21167;-75
2020/12/27 02:37:42;;;;;;;9.85;6.70;;;;;;;0.00;74.81;100689.03;1781849;80;21143;-76
2020/12/27 02:40:12;;;;;;;10.80;6.80;;;;;;;-0.02;74.78;100689.43;1781786;80;21354;-76
2020/12/27 02:42:58;;;;;;;12.40;6.97;;;;;;;0.01;74.83;100699.83;1782086;80;21154;-76
2020/12/27 02:45:26;;;;;;;10.78;6.58;;;;;;;0.01;74.89;100689.47;1782138;80;21621;-74
2020/12/27 02:48:13;;;;;;;9.00;5.85;;;;;;;0.01;74.79;100693.34;1782055;80;21103;-74
2020/12/27 02:50:49;;;;;;;10.45;6.65;;;;;;;0.02;75.59;100701.55;1775892;80;21606;-73
2020/12/27 02:53:17;;;;;;;11.73;5.90;;;;;;;0.02;75.42;100698.09;1719996;78;22511;-77
2020/12/27 02:55:45;;;;;;;11.80;6.15;;;;;;;0.03;75.04;100711.08;1693436;84;21629;-75
2020/12/27 02:58:13;;;;;;;9.15;6.22;;;;;;;0.03;75.40;100716.26;1669806;82;21681;-77
2020/12/27 03:00:42;;;;;;;13.43;7.25;;;;;;;0.04;75.37;100717.98;1694251;84;21211;-78
2020/12/27 03:03:25;;;;;;;8.37;5.50;;;;;;;0.10;74.83;100715.50;1800196;77;22807;-78
2020/12/27 03:05:55;;;;;;;11.95;6.58;;;;;;;0.07;74.39;100712.88;1750241;82;21130;-77
2020/12/27 03:08:22;;;;;;;13.70;5.72;;;;;;;0.09;74.82;100716.36;1750183;82;22096;-78
2020/12/27 03:11:09;;;;;;;10.40;5.55;;;;;;;0.10;74.76;100720.67;1751830;80;21103;-79
2020/12/27 03:13:37;;;;;;;10.05;5.95;;;;;;;0.10;75.24;100721.11;1752349;82;21036;-79
2020/12/27 03:16:05;;;;;;;10.55;5.67;;;;;;;0.13;75.37;100730.20;1752122;81;21070;-79
2020/12/27 03:18:40;;;;;;;11.97;5.90;;;;;;;0.14;75.58;100735.86;1748678;82;21126;-78
2020/12/27 03:22:34;;;;;;;10.07;6.57;;;;;;;0.19;74.61;100739.38;1778106;79;22551;-77
2020/12/27 03:25:10;;;;;;;11.90;6.60;;;;;;;0.16;74.95;100733.73;1748202;82;21583;-78
2020/12/27 03:27:37;;;;;;;9.45;5.70;;;;;;;0.15;75.29;100735.86;1750822;82;22738;-77
2020/12/27 03:30:06;;;;;;;8.40;5.65;;;;;;;0.14;74.81;100728.95;1746177;82;21624;-77
2020/12/27 03:32:35;;;;;;;13.37;6.90;;;;;;;0.15;74.94;100729.38;1720903;83;21071;-79
2020/12/27 03:35:05;;;;;;;10.40;6.55;;;;;;;0.15;74.96;100741.03;1719182;83;21056;-75
2020/12/27 03:37:35;;;;;;;10.95;6.08;;;;;;;0.12;74.21;100742.30;1718096;83;21199;-76
2020/12/27 03:40:21;;;;;;;10.98;6.22;;;;;;;0.11;74.17;100743.55;1718061;83;21401;-75
2020/12/27 03:43:07;;;;;;;11.70;7.73;;;;;;;0.16;73.43;100751.86;1831366;77;38191;-78
2020/12/27 03:45:36;;;;;;;14.35;6.53;;;;;;;0.16;73.17;100755.75;1817703;78;21219;-77
2020/12/27 03:48:24;;;;;;;13.70;7.33;;;;;;;0.20;73.49;100758.81;1816811;79;21383;-77
2020/12/27 03:50:56;;;;;;;11.55;6.87;;;;;;;0.26;74.86;100772.72;1816051;79;21024;-80
2020/12/27 03:53:24;;;;;;;18.15;7.33;;;;;;;0.26;74.81;100772.72;1746321;82;21171;-77
2020/12/27 03:56:04;;;;;;;20.57;9.47;;;;;;;0.29;75.30;100768.87;1890144;76;22577;-77
2020/12/27 03:58:46;;;;;;;22.10;9.88;;;;;;;0.26;75.27;100767.55;1773028;77;21572;-74
2020/12/27 04:01:18;;;;;;;23.87;10.03;;;;;;;0.25;75.45;100786.08;1802785;79;21441;-79
2020/12/27 04:03:47;;;;;;;33.15;12.53;;;;;;;0.26;74.58;100784.38;1806005;79;21048;-80
2020/12/27 04:06:17;;;;;;;36.03;13.68;;;;;;;0.26;74.62;100788.27;1805464;79;21190;-75
2020/12/27 04:08:47;;;;;;;34.13;12.77;;;;;;;0.27;75.54;100782.23;1802080;79;21206;-76
2020/12/27 04:11:15;;;;;;;27.82;10.88;;;;;;;0.26;74.47;100785.68;1801964;79;21154;-76
2020/12/27 04:13:44;;;;;;;20.27;10.08;;;;;;;0.28;74.86;100789.17;1801896;79;21403;-75
2020/12/27 04:16:13;;;;;;;18.55;8.73;;;;;;;0.25;73.27;100792.98;1801719;79;21139;-76
2020/12/27 04:18:41;;;;;;;16.65;7.72;;;;;;;0.25;74.01;100798.17;1801787;79;21135;-74
2020/12/27 04:21:17;;;;;;;13.68;7.30;;;;;;;0.22;73.76;100798.12;1801613;79;21638;-76
2020/12/27 04:23:55;;;;;;;14.57;8.10;;;;;;;0.28;75.47;100801.69;1774099;77;22848;-76
2020/12/27 04:26:23;;;;;;;15.45;7.20;;;;;;;0.26;75.22;100801.22;1732720;82;21674;-76
2020/12/27 04:28:54;;;;;;;15.30;7.62;;;;;;;0.29;75.66;100798.67;1732680;81;22121;-75
2020/12/27 04:31:22;;;;;;;15.18;7.45;;;;;;;0.27;74.53;100795.18;1748293;80;21646;-75
2020/12/27 04:33:54;;;;;;;13.93;6.95;;;;;;;0.27;75.13;100801.22;1750391;81;21194;-75
2020/12/27 04:36:31;;;;;;;13.72;8.28;;;;;;;0.27;74.69;100800.36;1750725;81;21190;-74
2020/12/27 04:38:59;;;;;;;17.48;9.43;;;;;;;0.26;73.41;100807.70;1751288;81;21206;-76
2020/12/27 04:41:29;;;;;;;15.40;8.33;;;;;;;0.24;73.61;100810.69;1751615;81;21571;-77
2020/12/27 04:43:58;;;;;;;14.00;8.50;;;;;;;0.21;73.71;100816.69;1751564;81;21169;-76
2020/12/27 04:46:25;;;;;;;13.53;7.58;;;;;;;0.22;74.06;100809.78;1752086;81;21107;-78
2020/12/27 04:48:55;;;;;;;10.98;6.65;;;;;;;0.19;74.16;100806.30;1751265;81;21150;-77
2020/12/27 04:51:27;;;;;;;11.55;6.62;;;;;;;0.22;74.46;100807.20;1749443;82;21203;-77
2020/12/27 04:53:57;;;;;;;11.20;7.08;;;;;;;0.22;74.55;100811.08;1747639;82;21264;-75
2020/12/27 04:56:28;;;;;;;13.48;7.45;;;;;;;0.22;75.01;100817.56;1749161;82;21753;-75
2020/12/27 04:59:04;;;;;;;14.30;7.53;;;;;;;0.24;75.48;100828.82;1749600;82;21575;-76
2020/12/27 05:01:33;;;;;;;14.15;7.47;;;;;;;0.25;75.79;100831.84;1749621;82;21167;-75
2020/12/27 05:04:27;;;;;;;11.57;7.10;;;;;;;0.27;76.59;100832.74;1751072;82;21200;-77
2020/12/27 05:07:02;;;;;;;13.40;7.72;;;;;;;0.28;75.85;100830.63;1748357;82;21609;-77
2020/12/27 05:09:52;;;;;;;12.10;5.83;;;;;;;0.34;74.93;100831.99;1840902;75;22684;-78
2020/12/27 05:12:19;;;;;;;12.78;6.97;;;;;;;0.31;75.37;100833.25;1785854;80;21127;-79
2020/12/27 05:14:48;;;;;;;12.30;6.97;;;;;;;0.34;75.60;100841.06;1785373;80;21198;-78
2020/12/27 05:17:16;;;;;;;11.53;6.05;;;;;;;0.34;75.27;100835.45;1754099;80;21205;-77
2020/12/27 05:19:46;;;;;;;13.95;6.95;;;;;;;0.35;75.95;100840.23;1785517;80;21151;-79
2020/12/27 05:22:14;;;;;;;12.63;6.20;;;;;;;0.36;75.63;100844.12;1787509;79;21143;-75
2020/12/27 05:24:47;;;;;;;13.40;7.03;;;;;;;0.37;75.69;100843.72;1788174;79;21028;-79
2020/12/27 05:27:16;;;;;;;10.25;5.72;;;;;;;0.36;75.48;100845.84;1735723;80;21299;-79
2020/12/27 05:30:01;;;;;;;10.90;5.90;;;;;;;0.42;74.96;100843.36;1804424;77;22792;-79
2020/12/27 05:32:37;;;;;;;12.00;7.08;;;;;;;0.37;75.11;100854.09;1712862;82;21064;-79
2020/12/27 05:35:24;;;;;;;18.02;7.58;;;;;;;0.35;74.90;100860.95;1754175;82;21693;-81
2020/12/27 05:38:01;;;;;;;10.58;6.08;;;;;;;0.31;74.65;100863.91;1752168;82;21158;-79
2020/12/27 05:40:42;;;;;;;8.30;4.73;;;;;;;0.36;75.65;100871.33;1853020;77;22585;-78
2020/12/27 05:43:18;;;;;;;12.20;6.47;;;;;;;0.31;75.94;100875.57;1822094;78;21103;-79
2020/12/27 05:45:57;;;;;;;13.30;6.67;;;;;;;0.33;76.57;100879.49;1768404;78;21579;-73
2020/12/27 05:48:25;;;;;;;15.83;7.75;;;;;;;0.35;77.00;100879.96;1821569;78;21158;-75
2020/12/27 05:50:53;;;;;;;16.93;7.92;;;;;;;0.36;76.71;100885.58;1821801;78;21181;-78
2020/12/27 05:53:23;;;;;;;11.57;7.33;;;;;;;0.37;77.01;100883.45;1764451;78;21174;-77
2020/12/27 05:55:53;;;;;;;11.83;6.97;;;;;;;0.40;76.81;100885.22;1756858;81;21634;-79
2020/12/27 05:58:23;;;;;;;14.15;7.58;;;;;;;0.41;76.34;100896.02;1759139;81;21405;-77
2020/12/27 06:00:55;;;;;;;12.35;6.72;;;;;;;0.39;76.21;100901.59;1756221;81;21565;-78
2020/12/27 06:03:27;;;;;;;10.70;6.33;;;;;;;0.38;75.50;100906.34;1754562;80;21194;-75
2020/12/27 06:06:10;;;;;;;11.70;6.60;;;;;;;0.38;75.98;100911.53;1754211;81;21174;-76
2020/12/27 06:09:03;;;;;;;9.03;4.95;;;;;;;0.35;76.13;100905.01;1754088;81;21175;-75
2020/12/27 06:11:39;;;;;;;13.22;7.00;;;;;;;0.37;77.33;100918.86;1727578;78;21357;-66
2020/12/27 06:14:24;;;;;;;15.90;8.48;;;;;;;0.37;77.99;100911.09;1714318;83;21635;-69
2020/12/27 06:17:20;;;;;;;26.17;9.67;;;;;;;0.44;76.45;100919.41;1879594;76;22670;-66
2020/12/27 06:20:07;;;;;;;12.82;6.95;;;;;;;0.38;76.47;100918.87;1794576;77;21166;-68
2020/12/27 06:22:37;;;;;;;17.02;8.28;;;;;;;0.39;76.01;100924.92;1788640;78;21390;-67
2020/12/27 06:25:18;;;;;;;14.47;8.20;;;;;;;0.44;76.53;100931.08;1846203;76;23069;-67
2020/12/27 06:27:47;;;;;;;14.68;7.87;;;;;;;0.39;75.34;100943.05;1784411;79;21182;-68
2020/12/27 06:30:21;;;;;;;15.63;7.37;;;;;;;0.36;74.50;100946.90;1789253;79;21563;-67
2020/12/27 06:33:11;;;;;;;15.38;7.22;;;;;;;0.32;74.29;100956.75;1780236;80;21182;-67
2020/12/27 06:35:39;;;;;;;15.38;7.75;;;;;;;0.29;74.27;100954.12;1766009;77;21232;-74
2020/12/27 06:38:21;;;;;;;18.32;8.88;;;;;;;0.27;74.15;100959.26;1700925;83;21203;-75
2020/12/27 06:41:10;;;;;;;12.30;7.28;;;;;;;0.26;74.00;100967.89;1757222;81;21608;-73
2020/12/27 06:43:56;;;;;;;19.67;9.23;;;;;;;0.29;74.72;100967.07;1815709;76;22649;-74
2020/12/27 06:46:28;;;;;;;20.45;9.55;;;;;;;0.25;75.29;100963.97;1783664;80;21190;-73
2020/12/27 06:49:14;;;;;;;20.83;10.27;;;;;;;0.29;75.21;100969.66;1888048;76;23361;-74
2020/12/27 06:51:52;;;;;;;21.93;10.58;;;;;;;0.23;74.95;100969.54;1855101;77;21182;-74
2020/12/27 06:54:42;;;;;;;27.00;10.13;;;;;;;0.25;74.84;100974.33;1888220;75;22661;-74
2020/12/27 07:00:25;;;;;;;13.87;7.93;;;;;;;0.27;75.85;100990.35;1773430;77;22691;-74
2020/12/27 07:03:13;;;;;;;16.73;7.35;;;;;;;0.24;76.46;100992.03;1703575;84;21166;-74
2020/12/27 07:05:41;;;;;;;16.82;9.23;;;;;;;0.27;75.91;100992.08;1688445;78;22242;-67
2020/12/27 07:08:12;;;;;;;15.40;8.10;;;;;;;0.29;75.46;101004.64;1707370;82;21165;-68
2020/12/27 07:10:45;;;;;;;15.28;8.38;;;;;;;0.31;75.61;101001.66;1743199;81;21675;-67
2020/12/27 07:13:15;;;;;;;24.10;11.85;;;;;;;0.33;74.41;100999.97;1767265;81;21199;-68
2020/12/27 07:15:52;;;;;;;23.77;11.95;;;;;;;0.32;74.01;100997.81;1722904;82;21169;-69
2020/12/27 07:18:28;;;;;;;23.52;11.00;;;;;;;0.32;73.93;100993.03;1739056;82;21361;-68
2020/12/27 07:20:57;;;;;;;22.32;11.15;;;;;;;0.34;74.52;100993.93;1739074;82;21183;-67
2020/12/27 07:23:28;;;;;;;26.80;12.13;;;;;;;0.36;75.29;100996.13;1742365;80;21249;-67
2020/12/27 07:26:01;;;;;;;24.18;11.05;;;;;;;0.40;75.21;100987.58;1722967;81;21262;-67
2020/12/27 07:28:30;;;;;;;29.20;12.20;;;;;;;0.45;75.88;100995.00;1708850;82;21175;-68
2020/12/27 07:31:02;;;;;;;29.45;14.10;;;;;;;0.50;75.89;100990.77;1709468;83;21453;-68
2020/12/27 07:33:37;;;;;;;23.85;12.30;;;;;;;0.53;76.17;100997.72;1698737;81;21839;-68
2020/12/27 07:36:07;;;;;;;29.72;12.35;;;;;;;0.57;75.45;100993.05;1750557;81;21162;-68
2020/12/27 07:38:56;;;;;;;53.75;24.37;;;;;;;0.61;74.54;100999.61;1736315;81;21128;-68
2020/12/27 07:41:24;;;;;;;63.60;27.75;;;;;;;0.62;74.19;100996.19;1729144;81;21227;-68
2020/12/27 07:43:53;;;;;;;59.73;25.70;;;;;;;0.68;74.62;101006.20;1742560;81;21219;-67
2020/12/27 07:46:21;;;;;;;36.13;15.58;;;;;;;0.71;74.23;100999.77;1738038;81;21167;-66
2020/12/27 07:48:49;;;;;;;33.83;15.05;;;;;;;0.75;74.31;101000.28;1741695;81;21204;-67
2020/12/27 07:51:20;;;;;;;29.32;12.95;;;;;;;0.79;74.43;100996.90;1733463;81;21706;-68
2020/12/27 07:53:55;;;;;;;28.98;12.18;;;;;;;0.82;73.59;100990.45;1740326;81;21203;-68
2020/12/27 07:56:27;;;;;;;28.20;12.35;;;;;;;0.87;73.82;100997.88;1762502;79;21366;-68
2020/12/27 07:58:57;;;;;;;27.40;12.03;;;;;;;0.96;74.16;100998.03;1728577;81;21200;-67
2020/12/27 08:01:30;;;;;;;29.35;12.98;;;;;;;1.08;73.00;100996.48;1732068;81;21202;-68
2020/12/27 08:04:05;;;;;;;32.98;13.25;;;;;;;1.16;72.96;100998.78;1740440;81;21825;-68
2020/12/27 08:06:36;;;;;;;31.37;14.47;;;;;;;1.32;72.27;101011.13;1755715;81;21165;-68
2020/12/27 08:09:12;;;;;;;22.85;13.00;;;;;;;1.43;70.81;101010.87;1753158;80;21370;-67
2020/12/27 08:11:42;;;;;;;23.00;12.13;;;;;;;1.51;70.08;101012.69;1746062;81;21653;-65
2020/12/27 08:14:11;;;;;;;26.77;13.35;;;;;;;1.53;70.32;101013.16;1754090;80;21203;-68
2020/12/27 08:16:43;;;;;;;26.57;14.00;;;;;;;1.54;70.52;101028.30;1751776;81;21617;-67
2020/12/27 08:19:14;;;;;;;31.00;15.55;;;;;;;1.52;70.61;101030.00;1752141;81;21197;-67
2020/12/27 08:21:43;;;;;;;29.60;15.03;;;;;;;1.51;70.88;101038.66;1739749;81;21365;-67
2020/12/27 08:24:14;;;;;;;29.25;13.75;;;;;;;1.45;71.63;101045.51;1718243;81;21588;-68
2020/12/27 08:26:48;;;;;;;26.60;14.30;;;;;;;1.44;72.57;101041.15;1725877;81;21357;-68
2020/12/27 08:29:26;;;;;;;34.43;16.62;;;;;;;1.49;71.82;101050.73;1722605;81;21194;-68
2020/12/27 08:32:05;;;;;;;38.17;17.00;;;;;;;1.51;71.56;101049.91;1722331;83;21204;-67
2020/12/27 08:34:33;;;;;;;34.35;15.50;;;;;;;1.49;69.98;101050.30;1707208;80;21387;-77
2020/12/27 08:37:01;;;;;;;35.88;14.50;;;;;;;1.45;70.35;101053.73;1676398;85;21139;-76
2020/12/27 08:39:54;;;;;;;29.87;15.10;;;;;;;1.44;70.31;101059.75;1676750;85;21162;-77
2020/12/27 08:42:45;;;;;;;33.75;14.63;;;;;;;1.38;70.19;101060.95;1671306;85;21221;-76
2020/12/27 08:45:16;;;;;;;38.90;17.05;;;;;;;1.36;71.50;101057.05;1674929;85;21215;-78
2020/12/27 08:47:54;;;;;;;39.25;17.60;;;;;;;1.34;72.19;101052.26;1677054;85;21388;-77
2020/12/27 08:50:39;;;;;;;32.53;14.47;;;;;;;1.36;71.48;101057.05;1673408;85;21205;-77
2020/12/27 08:53:09;;;;;;;36.05;15.10;;;;;;;1.36;71.43;101057.05;1677778;85;21577;-78
2020/12/27 08:55:37;;;;;;;33.48;15.05;;;;;;;1.32;70.44;101052.66;1674571;84;21221;-78
2020/12/27 08:58:10;;;;;;;35.30;15.65;;;;;;;1.31;70.72;101047.03;1671575;83;21928;-70
2020/12/27 09:00:47;;;;;;;35.28;15.72;;;;;;;1.30;70.19;101048.30;1674927;85;21239;-69
2020/12/27 09:03:13;;;;;;;32.33;15.30;;;;;;;1.24;70.49;101043.47;1676812;83;21268;-68
2020/12/27 09:05:41;;;;;;;32.53;15.08;;;;;;;1.25;71.09;101039.14;1685354;83;21193;-69
2020/12/27 09:08:18;;;;;;;31.77;13.53;;;;;;;1.28;72.10;101049.56;1644190;87;21643;-69
2020/12/27 09:10:51;;;;;;;29.00;13.45;;;;;;;1.31;70.95;101053.92;1686476;85;21683;-68
2020/12/27 09:15:55;;;;;;;35.27;19.20;;;;;;;1.42;70.89;101038.95;1799473;78;27977;-70
2020/12/27 09:18:30;;;;;;;32.10;15.83;;;;;;;1.48;70.22;101049.00;1787078;79;21165;-69
2020/12/27 09:21:05;;;;;;;34.83;17.45;;;;;;;1.51;69.82;101045.14;1762309;79;22108;-68
2020/12/27 09:23:34;;;;;;;39.20;15.98;;;;;;;1.56;69.51;101048.67;1782268;78;22172;-71
2020/12/27 09:26:09;;;;;;;33.05;15.00;;;;;;;1.54;68.62;101052.97;1745733;80;21217;-70
2020/12/27 09:28:39;;;;;;;43.38;18.17;;;;;;;1.58;69.08;101042.65;1729852;81;21186;-65
2020/12/27 09:31:12;;;;;;;33.42;13.55;;;;;;;1.67;69.44;101035.42;1731747;82;21130;-66
2020/12/27 09:33:47;;;;;;;29.60;14.73;;;;;;;1.74;69.93;101033.35;1729971;81;22229;-67
2020/12/27 09:36:17;;;;;;;18.82;9.93;;;;;;;1.83;68.58;101032.17;1731721;82;21194;-67
2020/12/27 09:38:46;;;;;;;17.15;8.68;;;;;;;1.89;67.49;101027.06;1730778;82;21220;-65
2020/12/27 09:41:24;;;;;;;14.28;7.35;;;;;;;1.93;65.49;101024.50;1731075;82;21197;-67
2020/12/27 09:44:00;;;;;;;17.50;9.05;;;;;;;2.01;67.23;101035.88;1730068;82;21215;-66
2020/12/27 09:46:51;;;;;;;27.25;11.18;;;;;;;2.10;64.58;101037.28;1729330;82;22192;-66
2020/12/27 09:52:13;;;;;;;25.50;11.00;;;;;;;2.37;64.16;101041.04;1839932;76;22690;-66
2020/12/27 09:54:42;;;;;;;16.82;7.45;;;;;;;2.44;63.92;101048.05;1747386;81;21685;-67
2020/12/27 09:57:21;;;;;;;11.05;5.17;;;;;;;2.61;61.95;101046.51;1708484;83;21441;-66
2020/12/27 09:59:52;;;;;;;10.50;5.65;;;;;;;2.73;63.25;101044.02;1715522;83;21238;-67
2020/12/27 10:02:23;;;;;;;10.13;5.75;;;;;;;2.85;63.65;101038.49;1715877;83;21173;-67
2020/12/27 10:04:50;;;;;;;8.30;5.05;;;;;;;2.89;59.67;101045.47;1727418;82;21157;-68
2020/12/27 10:07:18;;;;;;;10.95;4.60;;;;;;;2.86;59.94;101041.55;1778106;80;21654;-66
2020/12/27 10:09:46;;;;;;;9.48;5.22;;;;;;;2.84;59.42;101033.72;1780658;80;21383;-67
2020/12/27 10:12:14;;;;;;;15.00;6.35;;;;;;;2.85;60.92;101030.69;1776663;79;21193;-68
2020/12/27 10:14:42;;;;;;;13.35;6.20;;;;;;;2.88;59.08;101030.73;1776577;80;21207;-68
2020/12/27 10:17:10;;;;;;;15.32;6.45;;;;;;;2.88;59.08;101030.73;1780764;80;21180;-67
2020/12/27 10:19:38;;;;;;;10.32;5.42;;;;;;;2.86;58.28;101038.95;1778493;80;21629;-66
2020/12/27 10:22:05;;;;;;;14.87;5.80;;;;;;;2.74;57.10;101034.52;1778466;80;21377;-67
2020/12/27 10:24:33;;;;;;;14.98;6.37;;;;;;;2.64;57.30;101025.72;1745328;79;21127;-66
2020/12/27 10:27:03;;;;;;;13.32;6.08;;;;;;;2.53;57.87;101032.54;1712005;82;21779;-67
2020/12/27 10:29:31;;;;;;;11.90;6.87;;;;;;;2.38;58.31;101032.41;1732050;82;21741;-67
2020/12/27 10:32:04;;;;;;;10.88;6.00;;;;;;;2.27;58.99;101043.97;1679048;85;21195;-64
2020/12/27 10:34:33;;;;;;;12.43;5.72;;;;;;;2.18;59.63;101046.03;1733764;82;21226;-65
2020/12/27 10:37:02;;;;;;;12.80;6.97;;;;;;;2.10;59.27;101042.48;1733794;82;21612;-65
2020/12/27 10:39:30;;;;;;;11.35;6.70;;;;;;;2.02;60.69;101039.77;1712183;83;21201;-66
2020/12/27 10:41:59;;;;;;;10.72;6.58;;;;;;;2.04;59.72;101033.30;1733531;82;21142;-65
2020/12/27 10:44:27;;;;;;;8.08;4.22;;;;;;;2.05;60.06;101038.53;1683151;83;21194;-65
2020/12/27 10:46:56;;;;;;;7.75;4.55;;;;;;;2.04;58.00;101040.66;1734320;82;21390;-66
2020/12/27 10:49:24;;;;;;;9.95;4.78;;;;;;;1.96;58.80;101034.95;1683339;85;21195;-64
2020/12/27 10:51:51;;;;;;;9.93;4.92;;;;;;;1.94;60.09;101036.66;1702273;82;21685;-66
2020/12/27 10:54:19;;;;;;;28.62;9.83;;;;;;;1.96;59.27;101038.84;1711649;83;21636;-65
2020/12/27 10:56:48;;;;;;;10.90;5.50;;;;;;;1.93;59.40;101028.39;1736714;81;21196;-64
2020/12/27 10:59:16;;;;;;;12.73;6.00;;;;;;;1.86;57.53;101028.34;1734367;81;21659;-68
2020/12/27 11:01:49;;;;;;;8.58;4.55;;;;;;;1.78;57.67;101021.30;1733725;81;21171;-63
2020/12/27 11:04:17;;;;;;;10.20;5.20;;;;;;;1.76;57.86;101013.91;1728683;81;21122;-63
2020/12/27 11:06:44;;;;;;;11.15;6.15;;;;;;;1.80;59.09;101018.30;1700811;84;21188;-64
2020/12/27 11:09:12;;;;;;;9.70;5.40;;;;;;;1.75;58.15;101023.42;1702094;84;21201;-62
2020/12/27 11:14:11;;;;;;;10.40;4.60;;;;;;;1.87;60.67;101018.38;1847279;75;22058;-64
2020/12/27 11:16:39;;;;;;;11.65;5.60;;;;;;;1.93;59.43;101018.88;1814704;78;21131;-64
2020/12/27 11:19:08;;;;;;;9.80;4.80;;;;;;;1.97;59.13;101017.20;1748220;81;21058;-64
2020/12/27 11:21:36;;;;;;;14.43;7.37;;;;;;;1.96;59.18;101012.87;1762405;81;21206;-62
2020/12/27 11:24:06;;;;;;;11.95;5.35;;;;;;;1.94;59.97;101019.33;1741955;80;21237;-64
2020/12/27 11:26:33;;;;;;;11.05;5.08;;;;;;;1.94;58.20;101018.03;1736093;82;21189;-65
2020/12/27 11:29:03;;;;;;;13.50;5.15;;;;;;;1.96;59.18;101025.86;1742908;82;21141;-65
2020/12/27 11:31:31;;;;;;;9.33;4.75;;;;;;;1.96;59.59;101019.36;1737059;82;22236;-63
2020/12/27 11:34:00;;;;;;;11.33;6.12;;;;;;;1.97;58.94;101024.98;1735762;82;21653;-64
2020/12/27 11:36:28;;;;;;;15.58;4.97;;;;;;;1.98;58.61;101021.52;1741843;81;21628;-64
2020/12/27 11:38:56;;;;;;;9.25;5.08;;;;;;;1.98;58.51;101026.72;1712540;82;21178;-63
2020/12/27 11:41:25;;;;;;;10.05;5.58;;;;;;;1.93;59.38;101013.67;1735536;82;21198;-63
2020/12/27 11:43:53;;;;;;;8.20;4.95;;;;;;;1.95;58.68;101017.59;1713832;82;22277;-64
2020/12/27 11:46:27;;;;;;;9.70;5.37;;;;;;;1.94;58.64;101017.17;1735741;81;21642;-63
2020/12/27 11:48:55;;;;;;;10.53;5.20;;;;;;;1.87;59.49;101018.81;1743506;80;21184;-65
2020/12/27 11:51:26;;;;;;;10.45;5.47;;;;;;;1.90;60.41;101013.64;1737726;82;21194;-64
2020/12/27 11:53:54;;;;;;;12.05;5.28;;;;;;;1.93;61.86;101023.20;1738522;81;21189;-63
2020/12/27 11:56:22;;;;;;;11.28;5.08;;;;;;;1.93;62.34;101025.80;1744746;81;21386;-63
2020/12/27 11:58:51;;;;;;;9.58;5.50;;;;;;;1.91;61.59;101022.30;1736669;82;21188;-64
2020/12/27 12:01:19;;;;;;;8.33;4.83;;;;;;;1.89;61.61;101017.97;1736526;82;21629;-63
2020/12/27 12:03:47;;;;;;;11.22;4.72;;;;;;;1.91;60.08;101011.91;1735286;82;21192;-63